Time;durP1;ratioP1;P1;durP2;ratioP2;P2;SDS_P1;SDS_P2;PMS_P1;PMS_P2;Temp;Humidity;BMP_temperature;BMP_pressure;BME280_temperature;BME280_humidity;BME280_pressure;Samples;Min_cycle;Max_cycle;Signal;HPM_P1;HPM_P2
2023/05/11 00:02:00;;;;;;;13.60;7.40;;;12.90;99.90;;;;;;5039338;28;20124;-73
2023/05/11 00:04:25;;;;;;;15.30;8.20;;;12.90;99.90;;;;;;5043790;28;20080;-71
2023/05/11 00:06:51;;;;;;;15.18;8.00;;;12.90;99.90;;;;;;5045996;28;20040;-73
2023/05/11 00:09:17;;;;;;;17.25;8.05;;;12.90;99.90;;;;;;5043684;28;20021;-71
2023/05/11 00:11:42;;;;;;;15.52;8.00;;;12.90;99.90;;;;;;5037573;28;20070;-72
2023/05/11 00:14:08;;;;;;;17.30;9.20;;;12.90;99.90;;;;;;5039178;28;20050;-72
2023/05/11 00:16:33;;;;;;;17.58;9.48;;;12.90;99.90;;;;;;5045046;28;20025;-72
2023/05/11 00:18:59;;;;;;;17.05;8.57;;;12.90;99.90;;;;;;5020208;28;20079;-71
2023/05/11 00:21:25;;;;;;;17.25;9.20;;;12.90;99.90;;;;;;5049940;28;20017;-71
2023/05/11 00:23:50;;;;;;;17.23;9.07;;;12.90;99.90;;;;;;5041753;28;20081;-71
2023/05/11 00:26:16;;;;;;;20.85;10.48;;;12.90;99.90;;;;;;5037966;28;20089;-71
2023/05/11 00:28:44;;;;;;;23.23;11.00;;;12.90;99.90;;;;;;5027691;28;20040;-72
2023/05/11 00:31:10;;;;;;;20.30;10.40;;;13.00;99.90;;;;;;5044481;28;20052;-71
2023/05/11 00:33:35;;;;;;;22.90;11.13;;;13.00;99.90;;;;;;5044678;28;20514;-72
2023/05/11 00:36:02;;;;;;;25.98;11.55;;;13.00;99.90;;;;;;5027152;28;20397;-71
2023/05/11 00:38:28;;;;;;;22.60;12.15;;;13.00;99.90;;;;;;5034190;28;20048;-72
2023/05/11 00:40:54;;;;;;;26.73;12.30;;;13.00;99.90;;;;;;5039261;28;20048;-71
2023/05/11 00:43:19;;;;;;;23.13;11.40;;;13.00;99.90;;;;;;5032172;28;20064;-71
2023/05/11 00:45:47;;;;;;;23.17;12.35;;;13.10;99.90;;;;;;5030244;28;20030;-72
2023/05/11 00:48:13;;;;;;;21.88;11.32;;;13.00;99.90;;;;;;5046954;28;20079;-72
2023/05/11 01:35:19;;;;;;;38.85;19.30;;;12.60;99.90;;;;;;5026321;28;20351;-72
2023/05/11 01:37:49;;;;;;;40.40;20.23;;;12.60;99.90;;;;;;5029133;28;20069;-71
2023/05/11 01:40:17;;;;;;;37.90;18.02;;;12.70;99.90;;;;;;5024726;28;20030;-72
2023/05/11 01:42:49;;;;;;;44.65;20.67;;;12.70;99.90;;;;;;5031626;28;20025;-71
2023/05/11 01:45:16;;;;;;;44.17;20.50;;;12.70;99.90;;;;;;5045080;28;20091;-71
2023/05/11 01:47:43;;;;;;;48.42;21.45;;;12.80;99.90;;;;;;5024567;28;20034;-71
2023/05/11 01:50:10;;;;;;;44.30;20.88;;;12.80;99.90;;;;;;5047084;28;20025;-72
2023/05/11 01:52:37;;;;;;;50.88;22.73;;;12.80;99.90;;;;;;5028634;28;20029;-72
2023/05/11 01:55:05;;;;;;;56.97;26.98;;;12.80;99.90;;;;;;5034127;28;20021;-72
2023/05/11 01:57:32;;;;;;;62.80;26.95;;;12.70;99.90;;;;;;5023763;28;20026;-72
2023/05/11 01:59:59;;;;;;;52.00;23.67;;;12.70;99.90;;;;;;5018858;28;20037;-73
2023/05/11 02:02:26;;;;;;;51.83;23.27;;;12.80;99.90;;;;;;5032549;28;20389;-72
2023/05/11 02:04:53;;;;;;;51.22;22.83;;;12.80;99.90;;;;;;5034038;28;20091;-72
2023/05/11 02:07:21;;;;;;;55.00;24.15;;;12.70;99.90;;;;;;5033757;28;20033;-72
2023/05/11 02:09:48;;;;;;;52.95;24.27;;;12.70;99.90;;;;;;5041449;28;20469;-73
2023/05/11 02:12:17;;;;;;;57.13;24.88;;;12.70;99.90;;;;;;5041566;28;20056;-72
2023/05/11 02:14:45;;;;;;;57.58;26.08;;;12.70;99.90;;;;;;5024268;28;20523;-73
2023/05/11 02:17:12;;;;;;;69.90;27.63;;;12.60;99.90;;;;;;5033628;28;20030;-73
2023/05/11 02:19:40;;;;;;;65.78;25.83;;;12.60;99.90;;;;;;5033254;28;20102;-73
2023/05/11 02:22:08;;;;;;;67.30;25.55;;;12.60;99.90;;;;;;5033730;28;20915;-73
2023/05/11 02:24:35;;;;;;;63.67;24.15;;;12.60;99.90;;;;;;5034475;28;20041;-72
2023/05/11 02:27:01;;;;;;;66.47;26.83;;;12.60;99.90;;;;;;5033142;28;20036;-72
2023/05/11 02:29:27;;;;;;;63.65;25.83;;;12.60;99.90;;;;;;5033715;28;20041;-72
2023/05/11 02:32:00;;;;;;;66.75;25.45;;;12.60;99.90;;;;;;5033066;28;20025;-72
2023/05/11 02:34:33;;;;;;;73.70;27.77;;;12.60;99.90;;;;;;5025268;28;20036;-72
2023/05/11 02:37:01;;;;;;;71.53;27.17;;;12.60;99.90;;;;;;5050070;28;20484;-72
2023/05/11 02:39:37;;;;;;;77.28;26.80;;;12.60;99.90;;;;;;5040973;28;20037;-73
2023/05/11 02:42:19;;;;;;;75.78;25.83;;;12.60;99.90;;;;;;5033495;28;20516;-73
2023/05/11 02:44:59;;;;;;;79.32;29.17;;;12.70;99.90;;;;;;5032792;28;20041;-72
2023/05/11 02:47:35;;;;;;;80.80;28.63;;;12.70;99.90;;;;;;5033576;28;20040;-72
2023/05/11 02:50:03;;;;;;;77.78;27.08;;;12.70;99.90;;;;;;5033633;28;20099;-72
2023/05/11 02:52:30;;;;;;;81.00;28.08;;;12.70;99.90;;;;;;5033402;28;20052;-72
2023/05/11 02:54:58;;;;;;;80.45;27.65;;;12.80;99.90;;;;;;5032891;28;20033;-72
2023/05/11 02:57:24;;;;;;;78.53;25.83;;;12.80;99.90;;;;;;5033218;28;20040;-73
2023/05/11 02:59:51;;;;;;;71.97;26.08;;;12.90;99.90;;;;;;5033363;28;20025;-72
2023/05/11 03:02:16;;;;;;;71.40;24.10;;;12.90;99.90;;;;;;5032975;28;20299;-72
2023/05/11 03:04:42;;;;;;;67.05;21.90;;;12.90;99.90;;;;;;5033327;28;20510;-73
2023/05/11 03:07:08;;;;;;;64.60;22.88;;;12.80;99.90;;;;;;5033295;28;20026;-72
2023/05/11 03:09:34;;;;;;;60.35;23.25;;;12.80;99.90;;;;;;5033026;28;20060;-72
2023/05/11 03:12:01;;;;;;;63.35;23.75;;;12.80;99.90;;;;;;5032890;28;20064;-72
2023/05/11 03:14:27;;;;;;;62.58;23.52;;;12.90;99.90;;;;;;5033251;28;20033;-73
2023/05/11 03:16:55;;;;;;;58.08;22.10;;;12.80;99.90;;;;;;5033311;28;20493;-73
2023/05/11 03:19:21;;;;;;;56.97;22.52;;;12.80;99.90;;;;;;5032913;28;20041;-73
2023/05/11 03:21:51;;;;;;;61.78;22.27;;;12.90;99.90;;;;;;5033004;28;20045;-73
2023/05/11 03:24:17;;;;;;;59.60;22.70;;;12.90;99.90;;;;;;5032967;28;20449;-73
2023/05/11 03:26:43;;;;;;;60.05;23.08;;;12.90;99.90;;;;;;5033086;28;20030;-73
2023/05/11 03:29:11;;;;;;;57.67;23.42;;;12.80;99.90;;;;;;5032849;28;20026;-73
2023/05/11 03:31:37;;;;;;;58.17;22.13;;;12.80;99.90;;;;;;5033126;28;20064;-73
2023/05/11 03:34:02;;;;;;;61.08;22.40;;;12.80;99.90;;;;;;5037876;28;20110;-72
2023/05/11 03:36:29;;;;;;;65.07;23.65;;;12.80;99.90;;;;;;5046131;28;20037;-73
2023/05/11 03:38:56;;;;;;;63.15;22.90;;;12.90;99.90;;;;;;5048091;28;20024;-72
2023/05/11 03:41:24;;;;;;;63.47;22.90;;;12.90;99.90;;;;;;5052399;28;20039;-73
2023/05/11 03:43:51;;;;;;;68.32;25.85;;;13.00;99.90;;;;;;5035812;28;20029;-72
2023/05/11 03:46:19;;;;;;;61.10;23.02;;;13.00;99.90;;;;;;5038427;28;20099;-72
2023/05/11 03:48:46;;;;;;;65.32;24.98;;;13.00;99.90;;;;;;5030448;28;20047;-73
2023/05/11 03:51:12;;;;;;;65.25;23.65;;;13.00;99.90;;;;;;5032869;28;20134;-73
2023/05/11 03:53:38;;;;;;;57.70;22.38;;;13.10;99.90;;;;;;5033094;28;20486;-72
2023/05/11 03:56:06;;;;;;;56.17;21.70;;;13.10;99.90;;;;;;5033991;28;20108;-72
2023/05/11 03:58:32;;;;;;;57.35;21.98;;;13.10;99.90;;;;;;5044123;28;20160;-72
2023/05/11 04:00:58;;;;;;;55.45;21.90;;;13.10;99.90;;;;;;5043426;28;20110;-72
2023/05/11 04:03:23;;;;;;;44.63;19.75;;;13.10;99.90;;;;;;5036960;28;20077;-73
2023/05/11 04:05:49;;;;;;;47.17;18.70;;;13.20;99.90;;;;;;5045398;28;20037;-71
2023/05/11 04:08:15;;;;;;;48.10;20.75;;;13.20;99.90;;;;;;5046433;28;20026;-73
2023/05/11 04:10:40;;;;;;;47.45;19.52;;;13.20;99.90;;;;;;5041555;28;20025;-72
2023/05/11 04:13:06;;;;;;;46.28;19.60;;;13.20;99.90;;;;;;5039866;28;20273;-72
2023/05/11 04:15:32;;;;;;;42.97;17.67;;;13.20;99.90;;;;;;5048336;28;20028;-73
2023/05/11 04:17:57;;;;;;;46.50;19.23;;;13.20;99.90;;;;;;5034060;28;20361;-72
2023/05/11 04:20:23;;;;;;;48.88;19.52;;;13.30;99.90;;;;;;5045260;28;20075;-72
2023/05/11 04:22:49;;;;;;;44.55;18.42;;;13.30;99.90;;;;;;5042325;28;20041;-72
2023/05/11 04:25:15;;;;;;;42.67;18.77;;;13.30;99.90;;;;;;5038384;28;20369;-72
2023/05/11 04:27:41;;;;;;;41.90;17.40;;;13.40;99.90;;;;;;5048750;28;20431;-72
2023/05/11 04:30:07;;;;;;;45.17;19.02;;;13.30;99.90;;;;;;5036690;28;20021;-73
2023/05/11 04:32:32;;;;;;;42.33;18.38;;;13.40;99.90;;;;;;5044200;28;20029;-72
2023/05/11 04:34:58;;;;;;;44.47;18.42;;;13.40;99.90;;;;;;5043476;28;20024;-73
2023/05/11 04:37:24;;;;;;;39.53;17.13;;;13.40;99.90;;;;;;5036917;28;20061;-71
2023/05/11 04:39:49;;;;;;;41.10;18.02;;;13.50;99.90;;;;;;5048586;28;20025;-72
2023/05/11 04:42:15;;;;;;;40.83;18.83;;;13.50;99.90;;;;;;5037415;28;20029;-72
2023/05/11 04:44:40;;;;;;;39.05;18.27;;;13.50;99.90;;;;;;5042596;28;20029;-72
2023/05/11 04:47:06;;;;;;;40.13;18.30;;;13.50;99.90;;;;;;5045960;28;20108;-72
2023/05/11 04:49:31;;;;;;;40.58;19.02;;;13.60;99.90;;;;;;5039597;28;20034;-73
2023/05/11 04:51:57;;;;;;;40.13;18.08;;;13.70;99.90;;;;;;5050655;28;20025;-72
2023/05/11 04:54:22;;;;;;;39.80;18.30;;;13.70;99.90;;;;;;5041866;28;20025;-73
2023/05/11 04:56:50;;;;;;;34.92;16.63;;;13.70;99.90;;;;;;5043996;28;20535;-73
2023/05/11 04:59:16;;;;;;;34.17;16.00;;;13.80;99.90;;;;;;5049939;28;20021;-73
2023/05/11 05:01:41;;;;;;;35.55;16.73;;;13.80;99.90;;;;;;5038957;28;20512;-72
2023/05/11 05:04:07;;;;;;;35.83;16.95;;;13.80;99.90;;;;;;5050877;28;20041;-73
2023/05/11 05:06:33;;;;;;;38.17;17.90;;;13.80;99.90;;;;;;5043334;28;20037;-73
2023/05/11 05:08:58;;;;;;;33.78;16.05;;;13.90;99.90;;;;;;5043964;28;20108;-73
2023/05/11 05:11:24;;;;;;;32.53;15.32;;;13.90;99.90;;;;;;5050669;28;20057;-73
2023/05/11 05:13:50;;;;;;;34.80;15.82;;;13.90;99.90;;;;;;5038650;28;20052;-73
2023/05/11 05:16:15;;;;;;;34.70;16.52;;;14.00;99.90;;;;;;5049705;28;20022;-72
2023/05/11 05:18:41;;;;;;;41.47;18.50;;;14.10;99.90;;;;;;5044549;28;20033;-73
2023/05/11 05:21:07;;;;;;;32.78;16.67;;;14.10;99.90;;;;;;5042622;28;20065;-73
2023/05/11 05:23:32;;;;;;;36.03;17.15;;;14.20;99.90;;;;;;5051505;28;20044;-71
2023/05/11 05:25:58;;;;;;;37.08;17.30;;;14.10;99.90;;;;;;5038313;28;20116;-71
2023/05/11 05:28:23;;;;;;;37.88;17.40;;;14.20;99.90;;;;;;5048310;28;20025;-72
2023/05/11 05:30:49;;;;;;;36.50;17.15;;;14.20;99.90;;;;;;5045291;28;20465;-72
2023/05/11 05:33:14;;;;;;;37.28;18.35;;;14.20;99.90;;;;;;5052507;28;20043;-72
2023/05/11 05:35:42;;;;;;;42.10;19.30;;;14.10;99.90;;;;;;5038274;28;20057;-72
2023/05/11 05:38:08;;;;;;;40.30;18.92;;;14.10;99.90;;;;;;5048884;28;20128;-72
2023/05/11 05:40:36;;;;;;;39.13;18.92;;;14.20;99.90;;;;;;5037387;28;20124;-72
2023/05/11 05:43:02;;;;;;;38.55;19.38;;;14.10;99.90;;;;;;5034502;28;20105;-72
2023/05/11 05:45:27;;;;;;;43.92;21.88;;;14.20;99.90;;;;;;5049149;28;20443;-72
2023/05/11 05:47:53;;;;;;;35.10;16.73;;;14.20;99.90;;;;;;5051193;28;20036;-72
2023/05/11 05:50:18;;;;;;;40.47;18.20;;;14.20;99.90;;;;;;5040588;28;20033;-72
2023/05/11 05:52:45;;;;;;;41.78;19.35;;;14.30;99.90;;;;;;5044890;28;20044;-71
2023/05/11 05:55:10;;;;;;;43.20;20.60;;;14.30;99.90;;;;;;5047717;28;20423;-73
2023/05/11 05:57:36;;;;;;;38.42;17.27;;;14.30;99.90;;;;;;5036472;28;20030;-73
2023/05/11 06:00:01;;;;;;;36.60;17.67;;;14.30;99.90;;;;;;5050840;28;20044;-73
2023/05/11 06:02:27;;;;;;;38.50;18.10;;;14.40;99.90;;;;;;5041647;28;20035;-73
2023/05/11 06:04:52;;;;;;;40.65;18.00;;;14.40;99.90;;;;;;5043669;28;20032;-73
2023/05/11 06:07:18;;;;;;;37.95;16.42;;;14.40;99.90;;;;;;5039668;28;20022;-73
2023/05/11 06:09:43;;;;;;;38.50;18.77;;;14.50;99.90;;;;;;5045128;28;20053;-73
2023/05/11 06:12:09;;;;;;;39.13;18.83;;;14.40;99.90;;;;;;5048688;28;20034;-72
2023/05/11 06:14:35;;;;;;;37.95;18.42;;;14.50;99.90;;;;;;5042300;28;20029;-73
2023/05/11 06:17:01;;;;;;;37.80;16.25;;;14.50;99.90;;;;;;5041745;28;20032;-73
2023/05/11 06:19:26;;;;;;;35.88;16.27;;;14.60;99.90;;;;;;5049332;28;20021;-72
2023/05/11 06:21:52;;;;;;;36.50;16.92;;;14.60;99.90;;;;;;5037140;28;20039;-72
2023/05/11 06:24:17;;;;;;;34.65;16.70;;;14.70;99.90;;;;;;5047727;28;20048;-72
2023/05/11 06:26:43;;;;;;;31.92;15.98;;;14.70;99.90;;;;;;5042827;28;20145;-72
2023/05/11 06:29:08;;;;;;;34.00;17.40;;;14.80;99.90;;;;;;5040850;28;20480;-72
2023/05/11 06:31:34;;;;;;;32.95;15.73;;;14.90;99.90;;;;;;5049944;28;20032;-72
2023/05/11 06:33:59;;;;;;;30.20;15.45;;;14.90;99.90;;;;;;5035975;28;20099;-72
2023/05/11 06:36:25;;;;;;;31.80;16.67;;;15.10;99.90;;;;;;5040399;28;20085;-72
2023/05/11 06:38:50;;;;;;;32.38;15.88;;;15.20;99.90;;;;;;5050014;28;20064;-72
2023/05/11 06:41:16;;;;;;;28.88;14.57;;;15.30;99.90;;;;;;5048781;28;20061;-72
2023/05/11 06:43:42;;;;;;;26.88;13.75;;;15.30;99.90;;;;;;5051864;28;20065;-71
2023/05/11 06:46:08;;;;;;;29.67;15.05;;;15.40;99.90;;;;;;5037986;28;20111;-71
2023/05/11 06:48:34;;;;;;;27.85;13.73;;;15.40;99.90;;;;;;5044883;28;20017;-72
2023/05/11 06:51:00;;;;;;;25.50;12.55;;;15.50;99.90;;;;;;5044960;28;20054;-72
2023/05/11 06:53:25;;;;;;;26.20;12.43;;;15.70;99.90;;;;;;5037991;28;20026;-72
2023/05/11 06:55:53;;;;;;;25.77;13.00;;;15.90;99.90;;;;;;5049587;28;20040;-72
2023/05/11 06:58:19;;;;;;;26.83;14.00;;;16.20;99.90;;;;;;5039817;28;20021;-72
2023/05/11 07:00:45;;;;;;;23.38;12.77;;;16.40;99.90;;;;;;5043491;28;20024;-72
2023/05/11 07:03:10;;;;;;;23.55;11.50;;;16.70;99.90;;;;;;5045946;28;20033;-71
2023/05/11 07:05:36;;;;;;;22.00;11.27;;;16.90;99.90;;;;;;5048051;28;20128;-71
2023/05/11 07:08:03;;;;;;;21.02;11.63;;;17.00;99.90;;;;;;5035685;28;20052;-72
2023/05/11 07:10:30;;;;;;;22.30;11.88;;;17.10;99.90;;;;;;5043980;28;20013;-72
2023/05/11 07:12:56;;;;;;;25.40;13.63;;;17.30;99.90;;;;;;5044496;28;20029;-72
2023/05/11 07:15:21;;;;;;;22.23;12.70;;;17.50;99.90;;;;;;5038141;28;20075;-72
2023/05/11 07:17:48;;;;;;;23.30;11.90;;;17.70;99.90;;;;;;5049620;28;20045;-72
2023/05/11 07:20:14;;;;;;;22.25;12.90;;;17.90;99.90;;;;;;5038562;28;20041;-72
2023/05/11 07:22:39;;;;;;;25.73;14.43;;;18.00;99.90;;;;;;5043885;28;20064;-72
2023/05/11 07:25:05;;;;;;;25.15;14.82;;;18.10;99.90;;;;;;5045728;28;20101;-72
2023/05/11 07:27:31;;;;;;;23.98;14.10;;;18.00;99.90;;;;;;5033579;28;20107;-72
2023/05/11 07:29:57;;;;;;;27.33;15.45;;;17.90;99.90;;;;;;5036115;28;20029;-73
2023/05/11 07:32:22;;;;;;;28.02;15.55;;;18.00;99.90;;;;;;5045662;28;20037;-73
2023/05/11 07:34:48;;;;;;;25.13;14.45;;;18.10;99.90;;;;;;5036883;28;20095;-73
2023/05/11 07:37:14;;;;;;;28.13;16.70;;;18.20;99.90;;;;;;5046078;28;20103;-72
2023/05/11 07:39:39;;;;;;;27.40;14.90;;;18.30;99.90;;;;;;5051729;28;20100;-72
2023/05/11 07:42:05;;;;;;;25.02;14.63;;;18.30;99.90;;;;;;5036437;28;20021;-73
2023/05/11 07:44:30;;;;;;;26.48;14.57;;;18.40;99.90;;;;;;5044046;28;20103;-73
2023/05/11 07:46:57;;;;;;;24.50;14.27;;;18.40;99.90;;;;;;5043065;28;20424;-72
2023/05/11 07:49:22;;;;;;;24.85;14.10;;;18.50;99.90;;;;;;5037431;28;20029;-72
2023/05/11 07:51:49;;;;;;;23.70;13.55;;;18.40;99.90;;;;;;5049011;28;20029;-73
2023/05/11 07:54:14;;;;;;;27.88;14.15;;;18.40;99.90;;;;;;5035045;28;20052;-72
2023/05/11 07:56:40;;;;;;;23.33;13.05;;;18.40;99.90;;;;;;5046543;28;20045;-73
2023/05/11 07:59:06;;;;;;;24.83;13.10;;;18.40;99.90;;;;;;5039386;28;20080;-73
2023/05/11 08:01:32;;;;;;;21.80;12.27;;;18.50;99.90;;;;;;5030917;28;20026;-72
2023/05/11 08:03:58;;;;;;;20.50;11.07;;;18.50;99.90;;;;;;5031473;28;20048;-73
2023/05/11 08:06:24;;;;;;;20.23;11.15;;;18.40;99.90;;;;;;5032394;28;20064;-72
2023/05/11 08:08:52;;;;;;;20.75;9.88;;;18.40;99.90;;;;;;5031872;28;20112;-72
2023/05/11 08:11:17;;;;;;;17.40;9.05;;;18.40;99.90;;;;;;5031095;28;20124;-71
2023/05/11 08:13:43;;;;;;;17.27;8.73;;;18.40;99.90;;;;;;5031713;28;20566;-71
2023/05/11 08:16:08;;;;;;;18.02;8.77;;;18.40;99.90;;;;;;5031092;28;20477;-71
2023/05/11 08:18:34;;;;;;;15.13;7.97;;;18.40;99.90;;;;;;5031835;28;20478;-72
2023/05/11 08:21:00;;;;;;;19.27;9.73;;;18.40;99.90;;;;;;5032306;28;20056;-73
2023/05/11 08:23:25;;;;;;;14.18;7.35;;;18.50;99.90;;;;;;5031530;28;20094;-71
2023/05/11 08:25:53;;;;;;;13.90;7.63;;;18.50;99.90;;;;;;5031427;28;20038;-72
2023/05/11 08:28:19;;;;;;;16.88;8.25;;;18.60;99.90;;;;;;5030438;28;20026;-72
2023/05/11 08:30:45;;;;;;;16.80;8.43;;;18.60;99.90;;;;;;5022953;28;20473;-72
2023/05/11 08:33:12;;;;;;;16.58;8.32;;;18.60;99.90;;;;;;5031103;28;20025;-72
2023/05/11 08:35:38;;;;;;;13.98;7.60;;;18.70;99.90;;;;;;5030369;28;20044;-72
2023/05/11 08:38:04;;;;;;;15.20;7.75;;;18.80;99.90;;;;;;5031052;28;20080;-72
2023/05/11 08:40:30;;;;;;;12.95;6.32;;;18.80;99.90;;;;;;5030882;28;20026;-72
2023/05/11 08:42:58;;;;;;;14.85;7.07;;;18.70;99.90;;;;;;5026664;28;20048;-72
2023/05/11 08:45:26;;;;;;;11.13;5.82;;;18.70;99.90;;;;;;5030356;28;20060;-72
2023/05/11 08:47:52;;;;;;;10.10;5.40;;;18.60;99.90;;;;;;5030892;28;20029;-72
2023/05/11 08:50:19;;;;;;;11.45;5.20;;;18.60;99.90;;;;;;5031693;28;20060;-72
2023/05/11 08:52:45;;;;;;;9.98;5.80;;;18.50;99.90;;;;;;5031231;28;20029;-72
2023/05/11 08:55:12;;;;;;;12.98;6.07;;;18.40;99.90;;;;;;5031831;28;20048;-72
2023/05/11 08:57:39;;;;;;;16.08;8.90;;;18.30;99.90;;;;;;5030929;28;20120;-72
2023/05/11 09:00:06;;;;;;;12.60;5.97;;;18.20;99.90;;;;;;5030485;28;20025;-72
2023/05/11 09:02:33;;;;;;;11.15;5.50;;;18.10;99.90;;;;;;5029602;28;20045;-72
2023/05/11 09:05:02;;;;;;;12.00;5.38;;;18.00;99.90;;;;;;5037201;28;20037;-72
2023/05/11 09:07:28;;;;;;;14.35;7.75;;;17.90;99.90;;;;;;5040695;28;20728;-72
2023/05/11 09:09:55;;;;;;;10.70;5.50;;;17.80;99.90;;;;;;5029990;28;20034;-72
2023/05/11 09:12:24;;;;;;;12.80;6.03;;;17.60;99.90;;;;;;5029468;28;20018;-72
2023/05/11 09:14:51;;;;;;;13.00;6.15;;;17.50;99.90;;;;;;5029845;28;20075;-72
2023/05/11 09:17:17;;;;;;;10.15;5.10;;;17.40;99.90;;;;;;5030129;28;20044;-71
2023/05/11 09:20:00;;;;;;;13.68;5.78;;;17.20;99.90;;;;;;5036448;28;20055;-72
2023/05/11 09:22:26;;;;;;;12.93;5.90;;;17.00;99.90;;;;;;5031812;28;20021;-71
2023/05/11 09:24:52;;;;;;;13.05;5.97;;;16.90;99.90;;;;;;5031496;28;20034;-72
2023/05/11 09:27:17;;;;;;;11.30;5.45;;;16.80;99.90;;;;;;5031350;28;20069;-72
2023/05/11 09:29:43;;;;;;;10.82;6.25;;;16.80;99.90;;;;;;5031489;28;20029;-72
2023/05/11 09:32:09;;;;;;;13.00;5.88;;;16.70;99.90;;;;;;5031293;28;20037;-72
2023/05/11 09:34:42;;;;;;;8.35;4.57;;;16.70;99.90;;;;;;5032610;28;20104;-72
2023/05/11 09:37:16;;;;;;;11.05;5.28;;;16.70;99.90;;;;;;5033458;28;20052;-72
2023/05/11 09:39:41;;;;;;;9.15;4.80;;;16.80;99.90;;;;;;5046495;28;20033;-72
2023/05/11 09:42:17;;;;;;;10.15;4.57;;;17.10;99.90;;;;;;5034966;28;20540;-70
2023/05/11 09:44:44;;;;;;;8.13;4.20;;;17.30;99.90;;;;;;5034713;28;20025;-70
2023/05/11 09:47:15;;;;;;;13.63;5.97;;;17.50;99.90;;;;;;5034977;28;20018;-70
2023/05/11 09:49:42;;;;;;;7.43;4.18;;;18.10;99.90;;;;;;5034398;28;20026;-71
2023/05/11 09:52:11;;;;;;;11.52;5.47;;;19.20;99.90;;;;;;5034778;28;20095;-71
2023/05/11 09:54:54;;;;;;;7.32;3.90;;;20.20;99.90;;;;;;5034869;28;20064;-70
2023/05/11 09:57:29;;;;;;;9.77;5.70;;;21.00;99.90;;;;;;5014610;28;20478;-71
2023/05/11 09:59:58;;;;;;;6.35;3.70;;;21.30;99.90;;;;;;5014764;28;20037;-71
2023/05/11 10:02:30;;;;;;;5.57;3.00;;;21.30;99.90;;;;;;5014359;28;20060;-70
2023/05/11 10:04:58;;;;;;;4.60;2.80;;;21.10;99.90;;;;;;5015023;28;20061;-70
2023/05/11 10:07:34;;;;;;;6.80;3.30;;;20.80;99.90;;;;;;5014831;28;20030;-71
2023/05/11 10:10:04;;;;;;;5.95;3.10;;;20.50;99.90;;;;;;5012655;28;20041;-70
2023/05/11 10:12:39;;;;;;;10.35;4.97;;;20.60;99.90;;;;;;5020921;28;20041;-71
2023/05/11 10:15:07;;;;;;;4.35;2.42;;;21.00;99.90;;;;;;5033071;28;20076;-71
2023/05/11 10:17:34;;;;;;;8.20;3.42;;;21.80;99.90;;;;;;5034850;28;20473;-70
2023/05/11 10:20:00;;;;;;;5.35;2.47;;;22.10;99.90;;;;;;5034279;28;20072;-71
2023/05/11 10:22:27;;;;;;;14.20;7.95;;;22.30;99.90;;;;;;5034438;28;20427;-71
2023/05/11 10:24:57;;;;;;;5.15;3.55;;;22.30;99.90;;;;;;5032754;28;20068;-70
2023/05/11 10:27:23;;;;;;;5.72;3.45;;;22.40;99.90;;;;;;5033824;28;20029;-70
2023/05/11 10:29:50;;;;;;;16.88;8.98;;;22.40;99.90;;;;;;5034425;28;20034;-71
2023/05/11 10:32:17;;;;;;;3.90;2.60;;;22.30;99.90;;;;;;5034163;28;20025;-71
2023/05/11 10:34:45;;;;;;;7.85;3.90;;;22.10;99.90;;;;;;5034092;28;20026;-71
2023/05/11 10:37:12;;;;;;;7.25;3.70;;;22.00;99.90;;;;;;5033429;28;20167;-71
2023/05/11 10:39:39;;;;;;;6.85;4.03;;;21.90;99.90;;;;;;5040044;28;20071;-71
2023/05/11 10:42:32;;;;;;;15.18;9.60;;;21.90;99.90;;;;;;5033797;28;20593;-71
2023/05/11 10:45:51;;;;;;;6.25;3.92;;;22.00;99.90;;;;;;5036596;28;20398;-71
2023/05/11 10:48:51;;;;;;;7.10;3.65;;;22.20;99.90;;;;;;5030965;28;20636;-72
2023/05/11 10:51:29;;;;;;;9.23;4.70;;;22.60;99.90;;;;;;5023522;28;20045;-71
2023/05/11 10:54:08;;;;;;;6.85;4.57;;;23.00;99.90;;;;;;5042618;28;20053;-71
2023/05/11 10:56:36;;;;;;;9.48;5.57;;;23.50;99.90;;;;;;5041163;28;20037;-70
2023/05/11 10:59:41;;;;;;;12.02;6.38;;;23.60;99.90;;;;;;5046389;28;20070;-72
2023/05/11 11:02:07;;;;;;;8.43;4.78;;;23.50;99.90;;;;;;5018746;28;20514;-71
2023/05/11 11:04:47;;;;;;;12.35;6.32;;;23.30;99.90;;;;;;5009744;28;20434;-72
2023/05/11 11:07:17;;;;;;;13.32;6.07;;;23.40;99.90;;;;;;5020246;28;20048;-71
2023/05/11 11:10:05;;;;;;;10.32;5.88;;;23.50;99.90;;;;;;5044485;28;20084;-70
2023/05/11 11:12:33;;;;;;;26.48;16.02;;;23.70;99.90;;;;;;5035798;28;20029;-70
2023/05/11 11:15:05;;;;;;;16.30;8.85;;;24.00;99.90;;;;;;5019062;28;20022;-72
2023/05/11 11:17:33;;;;;;;19.17;10.43;;;24.30;99.90;;;;;;5021432;28;20524;-71
2023/05/11 11:20:02;;;;;;;17.95;9.13;;;24.50;99.90;;;;;;5034036;28;20108;-71
2023/05/11 11:22:34;;;;;;;17.38;9.32;;;24.30;99.90;;;;;;5035533;28;20389;-72
2023/05/11 11:25:10;;;;;;;;;;;24.00;99.90;;;;;;5038084;28;20036;-70
2023/05/11 11:27:44;;;;;;;18.88;10.68;;;23.80;99.90;;;;;;5044099;28;20424;-69
2023/05/11 11:30:27;;;;;;;15.98;7.20;;;23.60;99.90;;;;;;5036658;28;20025;-70
2023/05/11 11:33:14;;;;;;;17.75;10.68;;;22.60;99.90;;;;;;5030395;28;20075;-69
2023/05/11 11:35:41;;;;;;;22.00;10.98;;;21.60;99.90;;;;;;5031907;28;20099;-70
2023/05/11 11:38:09;;;;;;;22.48;9.77;;;20.80;99.90;;;;;;5030876;28;20040;-70
2023/05/11 11:40:39;;;;;;;22.95;11.88;;;20.20;99.90;;;;;;5030289;28;20101;-70
2023/05/11 11:43:21;;;;;;;25.25;13.48;;;19.90;99.90;;;;;;5032659;28;20045;-70
2023/05/11 11:46:00;;;;;;;19.85;9.18;;;19.90;99.90;;;;;;5032518;28;20436;-70
2023/05/11 11:48:34;;;;;;;19.55;6.97;;;20.00;99.90;;;;;;5032346;28;20033;-70
2023/05/11 11:51:07;;;;;;;19.00;7.28;;;20.20;99.90;;;;;;5030749;28;20069;-70
2023/05/11 11:53:43;;;;;;;14.98;5.65;;;20.30;99.90;;;;;;5032031;28;20026;-70
2023/05/11 11:56:14;;;;;;;16.08;5.25;;;20.60;99.90;;;;;;5031971;28;20026;-70
2023/05/11 11:58:40;;;;;;;20.58;7.75;;;20.80;99.90;;;;;;5032560;28;20039;-70
2023/05/11 12:01:14;;;;;;;13.70;4.75;;;21.00;99.90;;;;;;5031865;28;20096;-70
2023/05/11 12:03:42;;;;;;;16.20;6.43;;;21.30;99.90;;;;;;5032382;28;20176;-70
2023/05/11 12:06:09;;;;;;;13.85;5.38;;;21.60;99.90;;;;;;5031877;28;20362;-70
2023/05/11 12:08:36;;;;;;;14.93;4.63;;;22.00;99.90;;;;;;5030501;28;20124;-71
2023/05/11 12:11:03;;;;;;;10.20;3.72;;;22.20;99.90;;;;;;5030850;28;20106;-71
2023/05/11 12:13:31;;;;;;;11.30;4.38;;;22.40;99.90;;;;;;5041498;28;20033;-71
2023/05/11 12:16:17;;;;;;;7.88;3.20;;;22.30;99.90;;;;;;5037748;28;20027;-70
2023/05/11 12:18:51;;;;;;;10.70;3.75;;;22.20;99.90;;;;;;5019733;28;20112;-71
2023/05/11 12:21:22;;;;;;;11.73;4.88;;;21.80;99.90;;;;;;5042954;28;20454;-70
2023/05/11 12:23:55;;;;;;;13.38;5.95;;;21.10;99.90;;;;;;5033092;28;20033;-71
2023/05/11 12:26:23;;;;;;;15.82;8.05;;;20.50;99.90;;;;;;5032165;28;20036;-71
2023/05/11 12:28:50;;;;;;;7.95;3.60;;;20.00;99.90;;;;;;5036421;28;20100;-71
2023/05/11 12:31:17;;;;;;;18.40;8.27;;;19.80;99.90;;;;;;5049329;28;20035;-70
2023/05/11 12:33:50;;;;;;;10.95;5.10;;;19.60;99.90;;;;;;5039422;28;20485;-70
2023/05/11 12:36:17;;;;;;;16.33;7.32;;;19.50;99.90;;;;;;5048038;28;20033;-71
2023/05/11 12:38:46;;;;;;;12.02;4.93;;;19.50;99.90;;;;;;5035310;28;20388;-71
2023/05/11 12:41:22;;;;;;;16.67;7.90;;;19.60;99.90;;;;;;5040587;28;20025;-71
2023/05/11 12:43:55;;;;;;;16.20;6.93;;;19.70;99.90;;;;;;5035613;28;20051;-71
2023/05/11 12:46:21;;;;;;;15.63;5.75;;;19.80;99.90;;;;;;5031810;28;20026;-70
2023/05/11 12:48:48;;;;;;;15.50;6.78;;;20.10;99.90;;;;;;5045984;28;20021;-71
2023/05/11 12:52:00;;;;;;;14.68;6.85;;;20.30;99.90;;;;;;5039418;28;20112;-71
2023/05/11 12:54:39;;;;;;;12.68;5.30;;;20.60;99.90;;;;;;5031212;28;20045;-71
2023/05/11 12:57:23;;;;;;;17.83;8.05;;;20.80;99.90;;;;;;5028263;28;20040;-71
2023/05/11 13:00:03;;;;;;;8.25;4.03;;;21.10;99.90;;;;;;5025493;28;20504;-71
2023/05/11 13:02:29;;;;;;;14.48;6.25;;;21.20;99.90;;;;;;5032194;28;20047;-70
2023/05/11 13:04:54;;;;;;;9.75;4.53;;;20.90;99.90;;;;;;5031646;28;20033;-71
2023/05/11 13:07:27;;;;;;;8.98;4.70;;;20.80;99.90;;;;;;5031778;28;20021;-71
2023/05/11 13:09:57;;;;;;;7.53;3.80;;;20.40;99.90;;;;;;5035743;28;20029;-71
2023/05/11 13:12:23;;;;;;;6.60;3.40;;;20.00;99.90;;;;;;5036442;28;20064;-71
2023/05/11 13:15:02;;;;;;;6.85;3.80;;;19.70;99.90;;;;;;5036325;28;20373;-71
2023/05/11 13:17:34;;;;;;;8.02;3.85;;;19.60;99.90;;;;;;5038240;28;20098;-71
2023/05/11 13:20:26;;;;;;;5.20;2.90;;;19.60;99.90;;;;;;5049840;28;20120;-71
2023/05/11 13:23:24;;;;;;;3.78;2.58;;;19.70;99.90;;;;;;5039008;28;20029;-71
2023/05/11 13:25:54;;;;;;;7.07;3.30;;;19.80;99.90;;;;;;5028086;28;20038;-71